sensor_id;sensor_type;location;lat;lon;timestamp;pressure;altitude;pressure_sealevel;temperature;humidity
23172;BME280;11754;42.664;23.594;2023-03-15T00:00:47;94444.28;;;5.90;42.02
23172;BME280;11754;42.664;23.594;2023-03-15T00:03:13;94439.38;;;5.87;42.26
23172;BME280;11754;42.664;23.594;2023-03-15T00:05:47;94448.88;;;5.88;42.87
23172;BME280;11754;42.664;23.594;2023-03-15T00:08:12;94446.59;;;5.85;42.73
23172;BME280;11754;42.664;23.594;2023-03-15T00:10:41;94446.91;;;5.82;42.75
23172;BME280;11754;42.664;23.594;2023-03-15T00:13:07;94445.59;;;5.78;43.25
23172;BME280;11754;42.664;23.594;2023-03-15T00:15:33;94443.13;;;5.76;43.16
23172;BME280;11754;42.664;23.594;2023-03-15T00:17:58;94442.00;;;5.71;43.66
23172;BME280;11754;42.664;23.594;2023-03-15T00:20:23;94440.50;;;5.68;42.96
23172;BME280;11754;42.664;23.594;2023-03-15T00:22:49;94438.06;;;5.67;43.00
23172;BME280;11754;42.664;23.594;2023-03-15T00:25:14;94430.53;;;5.56;43.25
23172;BME280;11754;42.664;23.594;2023-03-15T00:27:40;94435.91;;;5.54;43.12
23172;BME280;11754;42.664;23.594;2023-03-15T00:30:05;94440.63;;;5.50;43.06
23172;BME280;11754;42.664;23.594;2023-03-15T00:32:31;94429.53;;;5.48;42.83
23172;BME280;11754;42.664;23.594;2023-03-15T00:34:56;94426.75;;;5.50;43.15
23172;BME280;11754;42.664;23.594;2023-03-15T00:37:22;94425.94;;;5.49;42.22
23172;BME280;11754;42.664;23.594;2023-03-15T00:39:49;94412.84;;;5.41;42.84
23172;BME280;11754;42.664;23.594;2023-03-15T00:42:15;94422.66;;;5.47;42.74
23172;BME280;11754;42.664;23.594;2023-03-15T00:44:41;94422.97;;;5.44;42.75
23172;BME280;11754;42.664;23.594;2023-03-15T00:47:12;94421.34;;;5.43;42.56
23172;BME280;11754;42.664;23.594;2023-03-15T00:49:38;94415.13;;;5.44;42.68
23172;BME280;11754;42.664;23.594;2023-03-15T00:52:04;94407.78;;;5.48;42.33
23172;BME280;11754;42.664;23.594;2023-03-15T00:54:30;94412.53;;;5.52;42.07
23172;BME280;11754;42.664;23.594;2023-03-15T00:56:59;94402.72;;;5.54;42.28
23172;BME280;11754;42.664;23.594;2023-03-15T00:59:27;94400.28;;;5.61;41.72
23172;BME280;11754;42.664;23.594;2023-03-15T01:01:53;94395.03;;;5.61;41.27
23172;BME280;11754;42.664;23.594;2023-03-15T01:04:19;94403.38;;;5.65;41.16
23172;BME280;11754;42.664;23.594;2023-03-15T01:06:44;94402.44;;;5.74;41.31
23172;BME280;11754;42.664;23.594;2023-03-15T01:09:09;94396.53;;;5.80;41.00
23172;BME280;11754;42.664;23.594;2023-03-15T01:11:35;94400.63;;;5.83;41.27
23172;BME280;11754;42.664;23.594;2023-03-15T01:14:00;94388.34;;;5.83;41.17
23172;BME280;11754;42.664;23.594;2023-03-15T01:16:29;94386.22;;;5.87;40.34
23172;BME280;11754;42.664;23.594;2023-03-15T01:18:55;94390.31;;;5.89;40.44
23172;BME280;11754;42.664;23.594;2023-03-15T01:21:22;94378.22;;;5.88;40.73
23172;BME280;11754;42.664;23.594;2023-03-15T01:23:48;94375.63;;;5.96;40.82
23172;BME280;11754;42.664;23.594;2023-03-15T01:26:15;94371.69;;;6.00;40.16
23172;BME280;11754;42.664;23.594;2023-03-15T01:28:40;94369.88;;;6.01;40.61
23172;BME280;11754;42.664;23.594;2023-03-15T01:31:12;94366.28;;;6.02;40.45
23172;BME280;11754;42.664;23.594;2023-03-15T01:33:39;94362.53;;;6.05;40.55
23172;BME280;11754;42.664;23.594;2023-03-15T01:36:06;94361.22;;;6.00;40.34
23172;BME280;11754;42.664;23.594;2023-03-15T01:38:34;94347.16;;;5.93;40.09
23172;BME280;11754;42.664;23.594;2023-03-15T01:41:00;94356.63;;;5.94;40.75
23172;BME280;11754;42.664;23.594;2023-03-15T01:43:27;94351.41;;;5.94;40.65
23172;BME280;11754;42.664;23.594;2023-03-15T01:48:45;94350.75;;;6.00;40.88
23172;BME280;11754;42.664;23.594;2023-03-15T01:51:26;94357.78;;;6.08;40.29
23172;BME280;11754;42.664;23.594;2023-03-15T01:56:24;94348.75;;;6.19;40.31
23172;BME280;11754;42.664;23.594;2023-03-15T01:58:53;94348.75;;;6.19;40.31
23172;BME280;11754;42.664;23.594;2023-03-15T02:01:21;94353.66;;;6.22;40.30
23172;BME280;11754;42.664;23.594;2023-03-15T02:03:49;94348.28;;;6.15;40.52
23172;BME280;11754;42.664;23.594;2023-03-15T02:06:18;94346.81;;;6.21;40.61
23172;BME280;11754;42.664;23.594;2023-03-15T02:08:58;94339.09;;;6.19;41.07
23172;BME280;11754;42.664;23.594;2023-03-15T02:11:26;94345.34;;;6.10;41.61
23172;BME280;11754;42.664;23.594;2023-03-15T02:13:52;94330.13;;;6.06;41.96
23172;BME280;11754;42.664;23.594;2023-03-15T02:16:20;94322.97;;;5.99;41.76
23172;BME280;11754;42.664;23.594;2023-03-15T02:18:46;94322.97;;;5.99;41.55
23172;BME280;11754;42.664;23.594;2023-03-15T02:24:07;94318.06;;;5.96;42.02
23172;BME280;11754;42.664;23.594;2023-03-15T02:26:43;94298.44;;;5.92;41.97
23172;BME280;11754;42.664;23.594;2023-03-15T02:29:09;94318.38;;;5.93;42.07
23172;BME280;11754;42.664;23.594;2023-03-15T02:31:35;94316.22;;;5.89;41.83
23172;BME280;11754;42.664;23.594;2023-03-15T02:34:03;94301.50;;;5.88;42.19
23172;BME280;11754;42.664;23.594;2023-03-15T02:36:30;94292.34;;;5.84;42.68
23172;BME280;11754;42.664;23.594;2023-03-15T02:38:58;94294.16;;;5.75;42.00
23172;BME280;11754;42.664;23.594;2023-03-15T02:41:27;94294.81;;;5.69;42.02
23172;BME280;11754;42.664;23.594;2023-03-15T02:43:57;94291.72;;;5.57;42.48
23172;BME280;11754;42.664;23.594;2023-03-15T02:46:24;94304.00;;;5.57;42.83
23172;BME280;11754;42.664;23.594;2023-03-15T02:48:51;94300.41;;;5.49;43.24
23172;BME280;11754;42.664;23.594;2023-03-15T02:51:20;94289.94;;;5.33;43.74
23172;BME280;11754;42.664;23.594;2023-03-15T02:53:47;94296.47;;;5.29;43.59
23172;BME280;11754;42.664;23.594;2023-03-15T02:56:12;94302.00;;;5.26;43.66
23172;BME280;11754;42.664;23.594;2023-03-15T02:58:39;94304.97;;;5.23;43.89
23172;BME280;11754;42.664;23.594;2023-03-15T03:01:04;94296.28;;;5.14;43.27
23172;BME280;11754;42.664;23.594;2023-03-15T03:03:30;94289.25;;;5.06;44.04
23172;BME280;11754;42.664;23.594;2023-03-15T03:05:55;94296.13;;;4.99;43.79
23172;BME280;11754;42.664;23.594;2023-03-15T03:08:20;94289.56;;;4.87;44.23
23172;BME280;11754;42.664;23.594;2023-03-15T03:10:46;94301.66;;;4.88;44.42
23172;BME280;11754;42.664;23.594;2023-03-15T03:13:11;94298.19;;;4.79;45.03
23172;BME280;11754;42.664;23.594;2023-03-15T03:15:36;94286.28;;;4.77;46.00
23172;BME280;11754;42.664;23.594;2023-03-15T03:18:02;94284.28;;;4.71;45.95
23172;BME280;11754;42.664;23.594;2023-03-15T03:20:27;94281.34;;;4.66;46.68
23172;BME280;11754;42.664;23.594;2023-03-15T03:22:53;94277.06;;;4.56;47.06
23172;BME280;11754;42.664;23.594;2023-03-15T03:25:20;94265.13;;;4.46;47.55
23172;BME280;11754;42.664;23.594;2023-03-15T03:27:46;94262.81;;;4.34;47.71
23172;BME280;11754;42.664;23.594;2023-03-15T03:30:12;94253.81;;;4.29;48.26
23172;BME280;11754;42.664;23.594;2023-03-15T03:32:39;94268.81;;;4.27;48.25
23172;BME280;11754;42.664;23.594;2023-03-15T03:35:06;94266.00;;;4.20;48.48
23172;BME280;11754;42.664;23.594;2023-03-15T03:37:31;94265.53;;;4.25;48.75
23172;BME280;11754;42.664;23.594;2023-03-15T03:39:57;94255.25;;;4.15;48.51
23172;BME280;11754;42.664;23.594;2023-03-15T03:42:23;94266.50;;;4.16;48.86
23172;BME280;11754;42.664;23.594;2023-03-15T03:44:49;94257.34;;;4.12;49.15
23172;BME280;11754;42.664;23.594;2023-03-15T03:47:15;94263.88;;;4.16;48.70
23172;BME280;11754;42.664;23.594;2023-03-15T03:49:40;94254.75;;;4.20;48.85
23172;BME280;11754;42.664;23.594;2023-03-15T03:52:06;94251.34;;;4.19;48.89
23172;BME280;11754;42.664;23.594;2023-03-15T03:54:31;94254.13;;;4.26;48.17
23172;BME280;11754;42.664;23.594;2023-03-15T03:56:57;94244.00;;;4.23;48.27
23172;BME280;11754;42.664;23.594;2023-03-15T03:59:22;94251.84;;;4.31;47.65
23172;BME280;11754;42.664;23.594;2023-03-15T04:01:48;94258.41;;;4.35;47.41
23172;BME280;11754;42.664;23.594;2023-03-15T04:04:15;94249.94;;;4.41;47.47
23172;BME280;11754;42.664;23.594;2023-03-15T04:06:41;94247.47;;;4.40;47.67
23172;BME280;11754;42.664;23.594;2023-03-15T04:09:14;94243.03;;;4.32;47.60
23172;BME280;11754;42.664;23.594;2023-03-15T04:11:41;94249.94;;;4.33;47.71
23172;BME280;11754;42.664;23.594;2023-03-15T04:14:11;94241.22;;;4.24;48.31
23172;BME280;11754;42.664;23.594;2023-03-15T04:16:37;94242.69;;;4.19;48.44
23172;BME280;11754;42.664;23.594;2023-03-15T04:19:03;94236.97;;;4.15;48.38
23172;BME280;11754;42.664;23.594;2023-03-15T04:21:28;94236.00;;;4.16;47.73
23172;BME280;11754;42.664;23.594;2023-03-15T04:24:00;94233.22;;;4.18;47.88
23172;BME280;11754;42.664;23.594;2023-03-15T04:26:27;94231.28;;;4.20;48.04
23172;BME280;11754;42.664;23.594;2023-03-15T04:28:54;94233.56;;;4.23;47.63
23172;BME280;11754;42.664;23.594;2023-03-15T04:31:20;94221.34;;;4.23;47.28
23172;BME280;11754;42.664;23.594;2023-03-15T04:33:45;94226.25;;;4.34;47.52
23172;BME280;11754;42.664;23.594;2023-03-15T04:36:11;94231.16;;;4.38;47.58
23172;BME280;11754;42.664;23.594;2023-03-15T04:38:43;94241.00;;;4.44;47.97
23172;BME280;11754;42.664;23.594;2023-03-15T04:41:10;94222.03;;;4.42;47.87
23172;BME280;11754;42.664;23.594;2023-03-15T04:43:35;94232.66;;;4.48;48.50
23172;BME280;11754;42.664;23.594;2023-03-15T04:46:01;94228.56;;;4.46;48.72
23172;BME280;11754;42.664;23.594;2023-03-15T04:48:26;94233.47;;;4.49;48.60
23172;BME280;11754;42.664;23.594;2023-03-15T04:50:52;94225.16;;;4.53;48.58
23172;BME280;11754;42.664;23.594;2023-03-15T04:53:17;94229.25;;;4.56;47.96
23172;BME280;11754;42.664;23.594;2023-03-15T04:55:42;94224.53;;;4.60;48.01
23172;BME280;11754;42.664;23.594;2023-03-15T04:58:08;94240.38;;;4.66;47.50
23172;BME280;11754;42.664;23.594;2023-03-15T05:00:33;94235.84;;;4.76;47.28
23172;BME280;11754;42.664;23.594;2023-03-15T05:02:59;94234.53;;;4.89;46.99
23172;BME280;11754;42.664;23.594;2023-03-15T05:05:24;94232.72;;;4.97;46.98
23172;BME280;11754;42.664;23.594;2023-03-15T05:07:50;94226.06;;;5.03;47.01
23172;BME280;11754;42.664;23.594;2023-03-15T05:10:16;94233.72;;;5.04;46.89
23172;BME280;11754;42.664;23.594;2023-03-15T05:12:41;94229.16;;;5.15;46.48
23172;BME280;11754;42.664;23.594;2023-03-15T05:15:07;94237.31;;;5.28;46.66
23172;BME280;11754;42.664;23.594;2023-03-15T05:17:33;94231.75;;;5.39;46.14
23172;BME280;11754;42.664;23.594;2023-03-15T05:19:58;94233.22;;;5.50;46.35
23172;BME280;11754;42.664;23.594;2023-03-15T05:22:26;94226.50;;;5.64;46.32
23172;BME280;11754;42.664;23.594;2023-03-15T05:24:52;94223.53;;;5.75;46.19
23172;BME280;11754;42.664;23.594;2023-03-15T05:27:20;94216.34;;;5.77;45.42
23172;BME280;11754;42.664;23.594;2023-03-15T05:29:45;94224.19;;;5.77;44.65
23172;BME280;11754;42.664;23.594;2023-03-15T05:32:11;94227.94;;;5.83;45.04
23172;BME280;11754;42.664;23.594;2023-03-15T05:34:36;94239.88;;;5.93;44.81
23172;BME280;11754;42.664;23.594;2023-03-15T05:37:02;94234.63;;;5.93;45.33
23172;BME280;11754;42.664;23.594;2023-03-15T05:39:27;94238.38;;;5.99;45.65
23172;BME280;11754;42.664;23.594;2023-03-15T05:41:54;94231.34;;;5.99;45.93
23172;BME280;11754;42.664;23.594;2023-03-15T05:44:19;94229.69;;;5.98;46.71
23172;BME280;11754;42.664;23.594;2023-03-15T05:46:44;94223.50;;;5.99;47.04
23172;BME280;11754;42.664;23.594;2023-03-15T05:49:10;94224.47;;;6.07;47.32
23172;BME280;11754;42.664;23.594;2023-03-15T05:51:35;94215.28;;;6.11;47.57
23172;BME280;11754;42.664;23.594;2023-03-15T05:54:00;94223.38;;;6.32;47.14
23172;BME280;11754;42.664;23.594;2023-03-15T05:56:26;94228.84;;;6.45;46.40
23172;BME280;11754;42.664;23.594;2023-03-15T05:58:51;94226.22;;;6.45;46.78
23172;BME280;11754;42.664;23.594;2023-03-15T06:01:17;94206.63;;;6.41;46.92
23172;BME280;11754;42.664;23.594;2023-03-15T06:03:42;94213.13;;;6.54;46.45
23172;BME280;11754;42.664;23.594;2023-03-15T06:06:08;94213.31;;;6.75;45.88
23172;BME280;11754;42.664;23.594;2023-03-15T06:08:36;94199.56;;;6.73;45.73
23172;BME280;11754;42.664;23.594;2023-03-15T06:11:01;94220.47;;;6.81;44.83
23172;BME280;11754;42.664;23.594;2023-03-15T06:13:27;94228.13;;;6.91;44.24
23172;BME280;11754;42.664;23.594;2023-03-15T06:15:52;94229.09;;;7.13;44.62
23172;BME280;11754;42.664;23.594;2023-03-15T06:18:17;94239.88;;;7.41;44.68
23172;BME280;11754;42.664;23.594;2023-03-15T06:20:43;94237.06;;;7.42;45.25
23172;BME280;11754;42.664;23.594;2023-03-15T06:23:09;94234.09;;;7.45;44.77
23172;BME280;11754;42.664;23.594;2023-03-15T06:25:34;94226.25;;;7.75;43.08
23172;BME280;11754;42.664;23.594;2023-03-15T06:28:00;94224.75;;;7.95;43.18
23172;BME280;11754;42.664;23.594;2023-03-15T06:30:26;94220.31;;;8.11;42.75
23172;BME280;11754;42.664;23.594;2023-03-15T06:32:52;94223.00;;;8.32;42.49
23172;BME280;11754;42.664;23.594;2023-03-15T06:35:17;94212.72;;;8.46;42.61
23172;BME280;11754;42.664;23.594;2023-03-15T06:37:42;94203.00;;;8.82;42.15
23172;BME280;11754;42.664;23.594;2023-03-15T06:40:09;94197.59;;;9.27;40.41
23172;BME280;11754;42.664;23.594;2023-03-15T06:42:36;94200.84;;;9.57;39.07
23172;BME280;11754;42.664;23.594;2023-03-15T06:45:02;94200.69;;;9.93;39.62
23172;BME280;11754;42.664;23.594;2023-03-15T06:47:28;94195.53;;;10.13;38.59
23172;BME280;11754;42.664;23.594;2023-03-15T06:49:53;94192.66;;;10.36;38.26
23172;BME280;11754;42.664;23.594;2023-03-15T06:52:19;94186.47;;;10.57;38.19
23172;BME280;11754;42.664;23.594;2023-03-15T06:54:44;94191.53;;;10.65;37.67
23172;BME280;11754;42.664;23.594;2023-03-15T06:57:10;94178.78;;;10.69;37.87
23172;BME280;11754;42.664;23.594;2023-03-15T06:59:35;94177.16;;;10.74;37.43
23172;BME280;11754;42.664;23.594;2023-03-15T07:02:01;94176.31;;;10.67;37.29
23172;BME280;11754;42.664;23.594;2023-03-15T07:04:26;94166.53;;;10.48;37.78
23172;BME280;11754;42.664;23.594;2023-03-15T07:06:52;94182.34;;;10.48;37.57
23172;BME280;11754;42.664;23.594;2023-03-15T07:09:18;94194.13;;;10.52;37.62
23172;BME280;11754;42.664;23.594;2023-03-15T07:11:43;94191.28;;;10.47;37.72
23172;BME280;11754;42.664;23.594;2023-03-15T07:14:09;94181.19;;;10.57;37.79
23172;BME280;11754;42.664;23.594;2023-03-15T07:16:34;94189.31;;;10.62;38.56
23172;BME280;11754;42.664;23.594;2023-03-15T07:19:00;94191.38;;;10.73;38.07
23172;BME280;11754;42.664;23.594;2023-03-15T07:21:26;94191.81;;;10.83;37.64
23172;BME280;11754;42.664;23.594;2023-03-15T07:23:52;94184.53;;;10.86;38.45
23172;BME280;11754;42.664;23.594;2023-03-15T07:26:17;94191.03;;;11.03;37.90
23172;BME280;11754;42.664;23.594;2023-03-15T07:28:42;94210.97;;;11.19;36.34
23172;BME280;11754;42.664;23.594;2023-03-15T07:31:09;94189.41;;;11.02;37.13
23172;BME280;11754;42.664;23.594;2023-03-15T07:33:35;94192.44;;;10.99;36.14
23172;BME280;11754;42.664;23.594;2023-03-15T07:36:02;94178.84;;;11.02;36.61
23172;BME280;11754;42.664;23.594;2023-03-15T07:38:31;94179.28;;;11.12;36.55
23172;BME280;11754;42.664;23.594;2023-03-15T07:40:57;94175.22;;;11.16;36.28
23172;BME280;11754;42.664;23.594;2023-03-15T07:43:26;94173.56;;;11.02;36.02
23172;BME280;11754;42.664;23.594;2023-03-15T07:45:51;94167.09;;;10.98;36.22
23172;BME280;11754;42.664;23.594;2023-03-15T07:48:16;94158.19;;;11.39;35.50
23172;BME280;11754;42.664;23.594;2023-03-15T07:50:42;94145.75;;;11.79;35.92
23172;BME280;11754;42.664;23.594;2023-03-15T07:53:07;94144.03;;;12.24;34.75
23172;BME280;11754;42.664;23.594;2023-03-15T07:55:33;94162.88;;;12.48;34.67
23172;BME280;11754;42.664;23.594;2023-03-15T07:58:02;94164.63;;;12.67;33.61
23172;BME280;11754;42.664;23.594;2023-03-15T08:00:28;94161.31;;;12.79;33.94
23172;BME280;11754;42.664;23.594;2023-03-15T08:02:53;94160.34;;;13.05;33.46
23172;BME280;11754;42.664;23.594;2023-03-15T08:05:19;94157.38;;;13.51;32.38
23172;BME280;11754;42.664;23.594;2023-03-15T08:07:46;94143.66;;;13.86;32.11
23172;BME280;11754;42.664;23.594;2023-03-15T08:10:12;94150.94;;;14.27;31.04
23172;BME280;11754;42.664;23.594;2023-03-15T08:12:37;94152.06;;;14.38;30.87
23172;BME280;11754;42.664;23.594;2023-03-15T08:15:05;94144.56;;;14.53;30.35
23172;BME280;11754;42.664;23.594;2023-03-15T08:17:30;94135.22;;;14.51;30.33
23172;BME280;11754;42.664;23.594;2023-03-15T08:19:56;94131.22;;;14.60;30.18
23172;BME280;11754;42.664;23.594;2023-03-15T08:22:21;94120.66;;;15.02;29.58
23172;BME280;11754;42.664;23.594;2023-03-15T08:24:48;94114.38;;;15.38;29.14
23172;BME280;11754;42.664;23.594;2023-03-15T08:27:14;94096.63;;;15.97;28.43
23172;BME280;11754;42.664;23.594;2023-03-15T08:29:40;94119.94;;;16.30;27.61
23172;BME280;11754;42.664;23.594;2023-03-15T08:32:06;94112.44;;;16.68;27.96
23172;BME280;11754;42.664;23.594;2023-03-15T08:34:33;94117.97;;;17.07;27.30
23172;BME280;11754;42.664;23.594;2023-03-15T08:36:58;94119.16;;;17.95;26.57
23172;BME280;11754;42.664;23.594;2023-03-15T08:39:24;94115.44;;;18.57;25.63
23172;BME280;11754;42.664;23.594;2023-03-15T08:41:49;94123.06;;;18.70;24.97
23172;BME280;11754;42.664;23.594;2023-03-15T08:44:15;94119.72;;;19.02;24.85
23172;BME280;11754;42.664;23.594;2023-03-15T08:46:40;94113.28;;;18.98;24.12
23172;BME280;11754;42.664;23.594;2023-03-15T08:49:06;94119.34;;;19.47;23.76
23172;BME280;11754;42.664;23.594;2023-03-15T08:51:31;94119.88;;;19.76;23.39
23172;BME280;11754;42.664;23.594;2023-03-15T08:53:57;94124.44;;;19.49;23.80
23172;BME280;11754;42.664;23.594;2023-03-15T08:56:23;94122.97;;;19.95;23.35
23172;BME280;11754;42.664;23.594;2023-03-15T08:58:48;94114.59;;;19.86;23.64
23172;BME280;11754;42.664;23.594;2023-03-15T09:01:14;94115.75;;;19.96;23.49
23172;BME280;11754;42.664;23.594;2023-03-15T09:03:40;94113.69;;;19.71;23.79
23172;BME280;11754;42.664;23.594;2023-03-15T09:06:07;94112.78;;;19.97;23.65
23172;BME280;11754;42.664;23.594;2023-03-15T09:08:33;94114.75;;;20.07;22.99
23172;BME280;11754;42.664;23.594;2023-03-15T09:10:59;94123.50;;;20.39;22.43
23172;BME280;11754;42.664;23.594;2023-03-15T09:13:26;94117.72;;;20.53;22.72
23172;BME280;11754;42.664;23.594;2023-03-15T09:15:53;94103.66;;;20.40;22.95
23172;BME280;11754;42.664;23.594;2023-03-15T09:18:20;94109.59;;;20.48;23.13
23172;BME280;11754;42.664;23.594;2023-03-15T09:20:45;94099.97;;;20.47;23.12
23172;BME280;11754;42.664;23.594;2023-03-15T09:23:11;94111.56;;;20.15;22.29
23172;BME280;11754;42.664;23.594;2023-03-15T09:25:37;94112.50;;;19.02;23.47
23172;BME280;11754;42.664;23.594;2023-03-15T09:28:04;94114.75;;;18.88;23.31
23172;BME280;11754;42.664;23.594;2023-03-15T09:30:29;94119.59;;;18.47;23.62
23172;BME280;11754;42.664;23.594;2023-03-15T09:32:55;94115.53;;;17.67;24.65
23172;BME280;11754;42.664;23.594;2023-03-15T09:35:21;94118.09;;;17.45;24.90
23172;BME280;11754;42.664;23.594;2023-03-15T09:37:47;94119.66;;;16.96;25.40
23172;BME280;11754;42.664;23.594;2023-03-15T09:40:21;94118.66;;;16.85;25.30
23172;BME280;11754;42.664;23.594;2023-03-15T09:43:02;94096.69;;;16.78;25.50
23172;BME280;11754;42.664;23.594;2023-03-15T09:46:15;94105.72;;;16.77;25.86
23172;BME280;11754;42.664;23.594;2023-03-15T09:49:04;94104.22;;;16.81;25.81
23172;BME280;11754;42.664;23.594;2023-03-15T09:51:42;94104.88;;;17.05;25.76
23172;BME280;11754;42.664;23.594;2023-03-15T09:54:15;94097.59;;;17.29;25.25
23172;BME280;11754;42.664;23.594;2023-03-15T09:56:55;94097.72;;;17.73;24.94
23172;BME280;11754;42.664;23.594;2023-03-15T09:59:43;94099.84;;;17.88;24.61
23172;BME280;11754;42.664;23.594;2023-03-15T10:02:16;94100.13;;;18.25;24.30
23172;BME280;11754;42.664;23.594;2023-03-15T10:04:44;94085.06;;;18.19;24.40
23172;BME280;11754;42.664;23.594;2023-03-15T10:07:13;94095.00;;;18.45;24.02
23172;BME280;11754;42.664;23.594;2023-03-15T10:09:40;94097.72;;;19.21;23.19
23172;BME280;11754;42.664;23.594;2023-03-15T10:15:03;94097.28;;;19.03;23.45
23172;BME280;11754;42.664;23.594;2023-03-15T10:17:56;94084.81;;;18.42;24.25
23172;BME280;11754;42.664;23.594;2023-03-15T10:20:34;94086.19;;;18.23;25.11
23172;BME280;11754;42.664;23.594;2023-03-15T10:23:24;94086.13;;;17.79;25.62
23172;BME280;11754;42.664;23.594;2023-03-15T10:25:53;94083.84;;;17.71;25.10
23172;BME280;11754;42.664;23.594;2023-03-15T10:28:23;94079.91;;;17.57;25.64
23172;BME280;11754;42.664;23.594;2023-03-15T10:30:50;94078.84;;;17.24;26.05
23172;BME280;11754;42.664;23.594;2023-03-15T10:35:56;94077.66;;;16.86;26.15
23172;BME280;11754;42.664;23.594;2023-03-15T10:38:23;94079.75;;;16.55;26.55
23172;BME280;11754;42.664;23.594;2023-03-15T10:40:49;94070.75;;;16.33;26.68
23172;BME280;11754;42.664;23.594;2023-03-15T10:43:24;94057.06;;;16.13;26.34
23172;BME280;11754;42.664;23.594;2023-03-15T10:46:20;94063.31;;;16.06;26.76
23172;BME280;11754;42.664;23.594;2023-03-15T10:48:55;94063.78;;;15.56;27.65
23172;BME280;11754;42.664;23.594;2023-03-15T10:51:31;94063.91;;;15.38;28.35
23172;BME280;11754;42.664;23.594;2023-03-15T10:54:14;94052.00;;;15.52;27.96
23172;BME280;11754;42.664;23.594;2023-03-15T10:56:45;94052.38;;;15.79;28.19
23172;BME280;11754;42.664;23.594;2023-03-15T10:59:20;94052.84;;;16.28;27.80
23172;BME280;11754;42.664;23.594;2023-03-15T11:01:47;94050.38;;;16.79;26.55
23172;BME280;11754;42.664;23.594;2023-03-15T11:04:21;94051.22;;;16.96;26.92
23172;BME280;11754;42.664;23.594;2023-03-15T11:07:00;94053.16;;;17.18;25.79
23172;BME280;11754;42.664;23.594;2023-03-15T11:09:40;94070.47;;;17.32;25.81
23172;BME280;11754;42.664;23.594;2023-03-15T11:12:15;94050.41;;;17.13;25.98
23172;BME280;11754;42.664;23.594;2023-03-15T11:14:46;94066.06;;;17.09;26.07
23172;BME280;11754;42.664;23.594;2023-03-15T11:17:25;94068.19;;;17.07;26.46
23172;BME280;11754;42.664;23.594;2023-03-15T11:19:55;94065.88;;;16.82;26.29
23172;BME280;11754;42.664;23.594;2023-03-15T11:22:21;94063.84;;;16.32;26.72
23172;BME280;11754;42.664;23.594;2023-03-15T11:24:46;94063.25;;;16.30;26.73
23172;BME280;11754;42.664;23.594;2023-03-15T11:27:15;94068.47;;;16.25;26.79
23172;BME280;11754;42.664;23.594;2023-03-15T11:29:48;94061.31;;;16.25;26.70
23172;BME280;11754;42.664;23.594;2023-03-15T11:32:19;94051.91;;;16.34;26.69
23172;BME280;11754;42.664;23.594;2023-03-15T11:34:54;94057.31;;;16.80;26.50
23172;BME280;11754;42.664;23.594;2023-03-15T11:37:25;94062.13;;;17.12;25.98
23172;BME280;11754;42.664;23.594;2023-03-15T11:45:34;94055.66;;;18.58;25.07
23172;BME280;11754;42.664;23.594;2023-03-15T11:48:18;94032.91;;;19.04;24.32
23172;BME280;11754;42.664;23.594;2023-03-15T11:50:46;94036.16;;;20.28;23.26
23172;BME280;11754;42.664;23.594;2023-03-15T11:53:14;94037.78;;;21.38;22.16
23172;BME280;11754;42.664;23.594;2023-03-15T11:55:46;94031.41;;;22.50;21.22
23172;BME280;11754;42.664;23.594;2023-03-15T11:58:33;94029.97;;;23.17;19.88
23172;BME280;11754;42.664;23.594;2023-03-15T12:01:06;94026.38;;;22.83;20.22
23172;BME280;11754;42.664;23.594;2023-03-15T12:08:47;94035.81;;;20.82;21.47
23172;BME280;11754;42.664;23.594;2023-03-15T12:16:22;93999.31;;;19.88;22.92
23172;BME280;11754;42.664;23.594;2023-03-15T12:18:48;94009.22;;;19.87;22.90
23172;BME280;11754;42.664;23.594;2023-03-15T12:21:18;94021.09;;;19.64;22.76
23172;BME280;11754;42.664;23.594;2023-03-15T12:23:56;94015.34;;;19.51;23.20
23172;BME280;11754;42.664;23.594;2023-03-15T12:26:31;94006.31;;;19.57;23.44
23172;BME280;11754;42.664;23.594;2023-03-15T12:29:09;93999.09;;;19.57;23.99
23172;BME280;11754;42.664;23.594;2023-03-15T12:31:53;94008.53;;;19.65;23.39
23172;BME280;11754;42.664;23.594;2023-03-15T12:34:36;94014.44;;;19.67;23.00
23172;BME280;11754;42.664;23.594;2023-03-15T12:37:12;94011.06;;;19.44;23.62
23172;BME280;11754;42.664;23.594;2023-03-15T12:39:40;93992.63;;;19.48;23.42
23172;BME280;11754;42.664;23.594;2023-03-15T12:53:33;93986.66;;;19.04;24.47
23172;BME280;11754;42.664;23.594;2023-03-15T12:58:53;93988.44;;;18.93;24.25
23172;BME280;11754;42.664;23.594;2023-03-15T13:01:19;93989.78;;;18.90;24.04
23172;BME280;11754;42.664;23.594;2023-03-15T13:03:53;93990.28;;;18.38;25.07
23172;BME280;11754;42.664;23.594;2023-03-15T13:12:22;94004.84;;;17.65;26.29
23172;BME280;11754;42.664;23.594;2023-03-15T13:15:02;94002.94;;;17.43;26.24
23172;BME280;11754;42.664;23.594;2023-03-15T13:18:12;94005.69;;;16.98;26.75
23172;BME280;11754;42.664;23.594;2023-03-15T13:21:10;94005.16;;;16.67;26.90
23172;BME280;11754;42.664;23.594;2023-03-15T13:23:42;94005.69;;;16.52;28.07
23172;BME280;11754;42.664;23.594;2023-03-15T13:29:03;94002.91;;;16.47;27.84
23172;BME280;11754;42.664;23.594;2023-03-15T13:31:34;93998.66;;;16.18;28.06
23172;BME280;11754;42.664;23.594;2023-03-15T13:34:11;94004.69;;;16.13;27.75
23172;BME280;11754;42.664;23.594;2023-03-15T13:36:39;94001.31;;;16.18;27.98
23172;BME280;11754;42.664;23.594;2023-03-15T13:39:18;93996.09;;;16.23;27.55
23172;BME280;11754;42.664;23.594;2023-03-15T13:41:45;93991.38;;;16.42;27.41
23172;BME280;11754;42.664;23.594;2023-03-15T13:44:21;93988.66;;;16.53;27.28
23172;BME280;11754;42.664;23.594;2023-03-15T13:46:48;94001.09;;;16.65;27.09
23172;BME280;11754;42.664;23.594;2023-03-15T13:49:14;93990.28;;;16.54;27.02
23172;BME280;11754;42.664;23.594;2023-03-15T13:51:41;94000.84;;;16.78;26.60
23172;BME280;11754;42.664;23.594;2023-03-15T13:54:15;93992.03;;;16.94;27.01